Time;durP1;ratioP1;P1;durP2;ratioP2;P2;SDS_P1;SDS_P2;PMS_P1;PMS_P2;Temp;Humidity;BMP_temperature;BMP_pressure;BME280_temperature;BME280_humidity;BME280_pressure;Samples;Min_cycle;Max_cycle;Signal;HPM_P1;HPM_P2
2024/01/09 00:00:34;;;;;;;15.13;9.47;;;;;;;;;;5031589;28;20196;-66
2024/01/09 00:03:02;;;;;;;16.27;10.40;;;;;;;;;;5033098;28;20310;-66
2024/01/09 00:05:30;;;;;;;18.33;11.57;;;;;;;;;;5012397;28;20206;-67
2024/01/09 00:07:58;;;;;;;16.70;11.03;;;;;;;;;;5017713;28;20209;-67
2024/01/09 00:10:25;;;;;;;18.10;10.97;;;;;;;;;;5014310;28;20209;-67
2024/01/09 00:12:53;;;;;;;15.80;10.87;;;;;;;;;;5033323;28;20252;-67
2024/01/09 00:15:20;;;;;;;18.07;11.17;;;;;;;;;;5029904;28;20212;-66
2024/01/09 00:17:47;;;;;;;16.73;10.47;;;;;;;;;;5034372;28;20229;-68
2024/01/09 00:20:15;;;;;;;15.67;10.80;;;;;;;;;;5037388;28;20205;-69
2024/01/09 00:22:42;;;;;;;15.40;10.73;;;;;;;;;;5046069;28;20541;-66
2024/01/09 00:25:09;;;;;;;18.57;11.47;;;;;;;;;;5030468;28;20234;-67
2024/01/09 00:27:36;;;;;;;20.10;10.93;;;;;;;;;;5030044;28;20206;-69
2024/01/09 00:30:04;;;;;;;18.47;11.83;;;;;;;;;;5030910;28;20719;-68
2024/01/09 00:32:31;;;;;;;17.27;11.53;;;;;;;;;;5028994;28;20225;-67
2024/01/09 00:34:59;;;;;;;17.40;11.57;;;;;;;;;;5028186;28;20230;-67
2024/01/09 00:37:26;;;;;;;15.80;11.47;;;;;;;;;;5035996;28;20888;-67
2024/01/09 00:39:53;;;;;;;17.43;10.73;;;;;;;;;;5031192;28;20208;-69
2024/01/09 00:42:21;;;;;;;18.90;12.10;;;;;;;;;;5035182;28;20287;-67
2024/01/09 00:44:48;;;;;;;19.87;12.13;;;;;;;;;;5034849;28;20680;-66
2024/01/09 00:47:15;;;;;;;22.27;13.07;;;;;;;;;;5036145;28;20275;-69
2024/01/09 00:49:46;;;;;;;16.93;11.40;;;;;;;;;;5012341;28;20205;-67
2024/01/09 00:52:13;;;;;;;18.30;12.00;;;;;;;;;;5027326;28;20205;-67
2024/01/09 00:54:43;;;;;;;20.13;11.80;;;;;;;;;;5034695;28;20235;-67
2024/01/09 00:57:10;;;;;;;21.43;12.07;;;;;;;;;;5028435;28;20245;-68
2024/01/09 00:59:38;;;;;;;18.40;11.80;;;;;;;;;;5029453;28;20584;-68
2024/01/09 01:02:05;;;;;;;19.13;12.33;;;;;;;;;;5034451;28;20661;-67
2024/01/09 01:04:33;;;;;;;17.27;12.00;;;;;;;;;;5029493;28;20239;-67
2024/01/09 01:07:00;;;;;;;18.30;11.77;;;;;;;;;;5029307;28;20327;-67
2024/01/09 01:09:27;;;;;;;16.40;11.40;;;;;;;;;;5022470;28;20235;-68
2024/01/09 01:11:55;;;;;;;19.23;11.80;;;;;;;;;;5026771;28;20210;-68
2024/01/09 01:14:24;;;;;;;20.23;12.30;;;;;;;;;;5027219;28;20344;-65
2024/01/09 01:16:51;;;;;;;19.97;11.67;;;;;;;;;;5033909;28;20218;-68
2024/01/09 01:19:18;;;;;;;20.17;11.37;;;;;;;;;;5029309;28;20591;-67
2024/01/09 01:21:46;;;;;;;20.43;12.07;;;;;;;;;;5039690;28;20201;-68
2024/01/09 01:24:13;;;;;;;18.90;12.10;;;;;;;;;;5031253;28;20218;-64
2024/01/09 01:26:40;;;;;;;15.67;10.27;;;;;;;;;;5032467;28;20450;-65
2024/01/09 01:29:08;;;;;;;23.67;12.77;;;;;;;;;;5029931;28;20240;-67
2024/01/09 01:31:35;;;;;;;20.10;12.37;;;;;;;;;;5030630;28;20612;-65
2024/01/09 01:34:02;;;;;;;18.83;11.83;;;;;;;;;;5032646;28;20280;-67
2024/01/09 01:36:30;;;;;;;19.33;12.63;;;;;;;;;;5034344;28;20202;-67
2024/01/09 01:38:58;;;;;;;18.87;12.13;;;;;;;;;;5012656;28;20225;-68
2024/01/09 01:41:25;;;;;;;18.00;12.47;;;;;;;;;;5027765;28;20642;-67
2024/01/09 01:43:53;;;;;;;22.33;12.77;;;;;;;;;;5031678;28;20225;-67
2024/01/09 01:46:20;;;;;;;21.50;13.10;;;;;;;;;;5033918;28;20212;-65
2024/01/09 01:48:48;;;;;;;22.23;13.27;;;;;;;;;;5030979;28;20648;-67
2024/01/09 01:51:15;;;;;;;18.17;11.87;;;;;;;;;;5035673;28;20600;-67
2024/01/09 01:53:43;;;;;;;20.13;12.23;;;;;;;;;;5031699;28;20728;-68
2024/01/09 01:56:10;;;;;;;19.27;12.97;;;;;;;;;;5034571;28;20271;-67
2024/01/09 01:58:38;;;;;;;20.27;13.40;;;;;;;;;;5031413;28;20504;-66
2024/01/09 02:01:05;;;;;;;21.53;12.50;;;;;;;;;;5031797;28;20201;-66
2024/01/09 02:03:33;;;;;;;17.90;12.13;;;;;;;;;;5017556;28;20263;-68
2024/01/09 02:06:02;;;;;;;19.23;12.43;;;;;;;;;;5031244;28;20213;-68
2024/01/09 02:08:29;;;;;;;19.60;12.83;;;;;;;;;;5036176;28;20204;-68
2024/01/09 02:10:57;;;;;;;21.17;12.80;;;;;;;;;;5034367;28;20228;-67
2024/01/09 02:13:24;;;;;;;21.87;13.67;;;;;;;;;;5032571;28;20236;-66
2024/01/09 02:15:51;;;;;;;20.93;12.87;;;;;;;;;;5034283;28;20263;-68
2024/01/09 02:18:18;;;;;;;18.37;12.57;;;;;;;;;;5002270;28;20282;-69
2024/01/09 02:20:46;;;;;;;19.03;12.13;;;;;;;;;;5037296;28;20645;-68
2024/01/09 02:23:13;;;;;;;22.93;13.37;;;;;;;;;;5034905;28;20289;-69
2024/01/09 02:25:41;;;;;;;21.50;13.17;;;;;;;;;;5032858;28;20293;-66
2024/01/09 02:28:11;;;;;;;23.87;13.83;;;;;;;;;;5032855;28;20212;-66
2024/01/09 02:30:39;;;;;;;21.93;13.67;;;;;;;;;;5015920;28;20205;-68
2024/01/09 02:33:09;;;;;;;22.20;12.50;;;;;;;;;;5033728;28;20222;-67
2024/01/09 02:35:37;;;;;;;16.77;11.93;;;;;;;;;;5030435;28;20213;-69
2024/01/09 02:38:04;;;;;;;22.20;12.77;;;;;;;;;;5032839;28;20775;-67
2024/01/09 02:40:32;;;;;;;20.50;12.43;;;;;;;;;;5032386;28;20582;-68
2024/01/09 02:42:59;;;;;;;21.63;13.63;;;;;;;;;;5030909;28;20605;-69
2024/01/09 02:45:26;;;;;;;21.83;12.87;;;;;;;;;;5039412;28;20261;-68
2024/01/09 02:47:54;;;;;;;24.40;13.10;;;;;;;;;;5033800;28;20205;-69
2024/01/09 02:50:21;;;;;;;21.90;13.10;;;;;;;;;;5033342;28;20208;-66
2024/01/09 02:52:49;;;;;;;20.57;12.27;;;;;;;;;;5033752;28;20567;-67
2024/01/09 02:55:16;;;;;;;19.57;12.17;;;;;;;;;;5031848;28;20256;-66
2024/01/09 02:57:44;;;;;;;21.83;11.90;;;;;;;;;;5035868;28;20750;-67
2024/01/09 03:00:11;;;;;;;22.30;12.93;;;;;;;;;;5034836;28;20268;-68
2024/01/09 03:02:39;;;;;;;21.13;11.90;;;;;;;;;;5031536;28;20225;-65
2024/01/09 03:05:06;;;;;;;23.10;12.80;;;;;;;;;;5016214;28;20201;-66
2024/01/09 03:07:34;;;;;;;20.17;11.57;;;;;;;;;;5032251;28;20574;-68
2024/01/09 03:10:03;;;;;;;19.63;12.57;;;;;;;;;;5012438;28;20208;-67
2024/01/09 03:12:31;;;;;;;20.87;12.47;;;;;;;;;;5034502;28;20231;-68
2024/01/09 03:14:58;;;;;;;22.00;12.07;;;;;;;;;;5034369;28;20208;-67
2024/01/09 03:17:25;;;;;;;22.00;13.10;;;;;;;;;;5033726;28;20208;-67
2024/01/09 03:19:52;;;;;;;21.70;12.57;;;;;;;;;;5030249;28;20205;-66
2024/01/09 03:22:20;;;;;;;21.07;13.70;;;;;;;;;;5032040;28;20211;-69
2024/01/09 03:24:47;;;;;;;21.10;11.87;;;;;;;;;;5030424;28;20269;-66
2024/01/09 03:27:14;;;;;;;22.43;12.03;;;;;;;;;;5031196;28;20206;-68
2024/01/09 03:29:42;;;;;;;23.17;13.23;;;;;;;;;;5031988;28;20293;-68
2024/01/09 03:32:09;;;;;;;22.27;12.90;;;;;;;;;;5032658;28;20206;-64
2024/01/09 03:34:36;;;;;;;21.70;12.47;;;;;;;;;;5030559;28;20210;-66
2024/01/09 03:37:07;;;;;;;20.43;12.63;;;;;;;;;;5029416;28;20205;-66
2024/01/09 03:39:34;;;;;;;20.27;12.67;;;;;;;;;;5037972;28;20227;-67
2024/01/09 03:42:01;;;;;;;21.93;12.83;;;;;;;;;;5032158;28;20749;-67
2024/01/09 03:44:29;;;;;;;20.47;12.63;;;;;;;;;;5030806;28;20598;-68
2024/01/09 03:46:56;;;;;;;21.70;13.20;;;;;;;;;;5033372;28;20196;-68
2024/01/09 03:49:23;;;;;;;24.83;14.33;;;;;;;;;;5029449;28;20205;-68
2024/01/09 03:51:51;;;;;;;46.73;23.03;;;;;;;;;;5014382;28;20231;-69
2024/01/09 03:54:18;;;;;;;26.67;15.90;;;;;;;;;;5029858;28;20228;-64
2024/01/09 03:56:45;;;;;;;23.47;13.60;;;;;;;;;;5032023;28;20589;-68
2024/01/09 03:59:13;;;;;;;23.03;13.50;;;;;;;;;;5030670;28;20365;-67
2024/01/09 04:01:40;;;;;;;22.47;12.97;;;;;;;;;;5034255;28;20199;-67
2024/01/09 04:04:07;;;;;;;22.77;12.53;;;;;;;;;;5028049;28;20220;-69
2024/01/09 04:06:43;;;;;;;20.70;12.33;;;;;;;;;;5012686;28;20302;-67
2024/01/09 04:09:11;;;;;;;21.47;12.37;;;;;;;;;;5032089;28;20289;-69
2024/01/09 04:11:43;;;;;;;23.23;13.57;;;;;;;;;;5028251;28;20211;-67
2024/01/09 04:14:11;;;;;;;24.90;13.23;;;;;;;;;;5031885;28;20231;-68
2024/01/09 04:16:39;;;;;;;23.20;14.03;;;;;;;;;;5017349;28;20206;-69
2024/01/09 04:19:06;;;;;;;32.17;18.47;;;;;;;;;;5010462;28;20305;-68
2024/01/09 04:21:33;;;;;;;23.03;12.97;;;;;;;;;;5028278;28;20726;-66
2024/01/09 04:24:01;;;;;;;21.90;12.73;;;;;;;;;;5028630;28;20228;-68
2024/01/09 04:26:28;;;;;;;23.03;14.03;;;;;;;;;;5030266;28;20695;-67
2024/01/09 04:28:55;;;;;;;23.77;13.90;;;;;;;;;;5033230;28;20588;-69
2024/01/09 04:31:26;;;;;;;23.47;14.37;;;;;;;;;;5029680;28;20293;-65
2024/01/09 04:33:53;;;;;;;24.13;14.13;;;;;;;;;;5030857;28;20307;-69
2024/01/09 04:36:20;;;;;;;24.47;14.60;;;;;;;;;;5031066;28;20211;-65
2024/01/09 04:38:47;;;;;;;20.43;13.40;;;;;;;;;;5032888;28;20250;-67
2024/01/09 04:41:18;;;;;;;23.53;14.07;;;;;;;;;;5031191;28;20288;-67
2024/01/09 04:43:47;;;;;;;22.13;13.13;;;;;;;;;;5030736;28;20219;-67
2024/01/09 04:46:14;;;;;;;23.50;13.00;;;;;;;;;;5026154;28;20204;-68
2024/01/09 04:48:41;;;;;;;23.97;13.53;;;;;;;;;;5028942;28;20214;-64
2024/01/09 04:51:09;;;;;;;19.53;12.63;;;;;;;;;;5026504;28;20291;-66
2024/01/09 04:53:36;;;;;;;21.77;12.83;;;;;;;;;;5033209;28;20295;-68
2024/01/09 04:56:03;;;;;;;23.83;13.13;;;;;;;;;;5029067;28;20208;-67
2024/01/09 04:58:31;;;;;;;21.50;14.17;;;;;;;;;;5034337;28;20282;-68
2024/01/09 05:00:58;;;;;;;23.53;13.47;;;;;;;;;;5008198;28;20643;-67
2024/01/09 05:03:25;;;;;;;25.37;13.70;;;;;;;;;;5034775;28;20247;-67
2024/01/09 05:05:52;;;;;;;22.37;13.37;;;;;;;;;;5032513;28;20211;-69
2024/01/09 05:08:20;;;;;;;24.90;14.13;;;;;;;;;;5029296;28;20253;-68
2024/01/09 05:10:47;;;;;;;23.93;13.97;;;;;;;;;;5013404;28;20671;-68
2024/01/09 05:13:15;;;;;;;21.30;13.40;;;;;;;;;;5036392;28;20218;-66
2024/01/09 05:15:42;;;;;;;25.00;14.07;;;;;;;;;;5013719;28;20750;-68
2024/01/09 05:18:09;;;;;;;19.67;12.50;;;;;;;;;;5026228;28;20235;-68
2024/01/09 05:20:37;;;;;;;24.00;13.67;;;;;;;;;;5027375;28;20221;-65
2024/01/09 05:23:04;;;;;;;26.20;14.90;;;;;;;;;;5025429;28;20315;-67
2024/01/09 05:25:32;;;;;;;20.53;12.93;;;;;;;;;;5030683;28;20208;-68
2024/01/09 05:27:59;;;;;;;24.43;13.50;;;;;;;;;;5031543;28;20203;-69
2024/01/09 05:33:16;;;;;;;22.87;13.80;;;;;;;;;;5046431;22;20727;-78
2024/01/09 05:35:44;;;;;;;23.00;13.80;;;;;;;;;;5050623;28;20729;-78
2024/01/09 05:38:11;;;;;;;22.97;13.53;;;;;;;;;;5079948;28;20317;-76
2024/01/09 05:40:45;;;;;;;22.73;13.63;;;;;;;;;;5073085;28;20197;-77
2024/01/09 05:43:12;;;;;;;26.33;14.77;;;;;;;;;;5064036;28;20222;-78
2024/01/09 05:45:39;;;;;;;23.73;14.13;;;;;;;;;;5086629;28;20201;-78
2024/01/09 05:48:07;;;;;;;26.57;14.07;;;;;;;;;;5080229;28;20215;-77
2024/01/09 05:50:35;;;;;;;25.37;14.60;;;;;;;;;;5080847;28;20233;-78
2024/01/09 05:53:02;;;;;;;25.50;14.73;;;;;;;;;;5088956;28;20228;-78
2024/01/09 05:55:29;;;;;;;22.77;13.97;;;;;;;;;;5094683;28;20233;-78
2024/01/09 05:57:57;;;;;;;25.03;14.13;;;;;;;;;;5088242;28;20208;-78
2024/01/09 06:00:24;;;;;;;25.90;15.00;;;;;;;;;;5082411;28;20304;-80
2024/01/09 06:02:52;;;;;;;23.57;13.97;;;;;;;;;;5086255;28;20222;-76
2024/01/09 06:05:19;;;;;;;24.57;14.03;;;;;;;;;;5062075;28;20214;-77
2024/01/09 06:07:46;;;;;;;26.13;15.47;;;;;;;;;;5086780;28;20207;-79
2024/01/09 06:10:14;;;;;;;25.27;14.30;;;;;;;;;;5084491;28;20221;-78
2024/01/09 06:12:41;;;;;;;27.00;15.13;;;;;;;;;;5066610;28;20279;-77
2024/01/09 06:15:08;;;;;;;26.70;13.87;;;;;;;;;;5078260;28;20234;-79
2024/01/09 06:17:35;;;;;;;27.73;14.60;;;;;;;;;;5083721;28;20254;-78
2024/01/09 06:20:03;;;;;;;23.77;13.80;;;;;;;;;;5078242;28;20590;-77
2024/01/09 06:22:30;;;;;;;26.97;14.07;;;;;;;;;;5088179;28;20823;-79
2024/01/09 06:24:58;;;;;;;29.03;15.23;;;;;;;;;;5081872;28;20200;-78
2024/01/09 06:27:25;;;;;;;23.80;15.03;;;;;;;;;;5091698;28;20203;-79
2024/01/09 06:29:52;;;;;;;31.60;17.23;;;;;;;;;;5091059;28;20206;-77
2024/01/09 06:32:19;;;;;;;27.97;15.70;;;;;;;;;;5083157;28;20683;-78
2024/01/09 06:34:47;;;;;;;25.40;15.37;;;;;;;;;;5084606;28;20299;-79
2024/01/09 06:37:14;;;;;;;29.70;16.43;;;;;;;;;;5081058;28;20250;-78
2024/01/09 06:39:41;;;;;;;26.47;15.27;;;;;;;;;;5093828;28;20228;-78
2024/01/09 06:42:08;;;;;;;27.93;15.33;;;;;;;;;;5089577;28;20221;-77
2024/01/09 06:44:36;;;;;;;27.10;15.40;;;;;;;;;;5086733;28;20201;-78
2024/01/09 06:47:03;;;;;;;27.40;15.73;;;;;;;;;;5088872;28;20212;-76
2024/01/09 06:49:30;;;;;;;26.73;15.67;;;;;;;;;;5091863;28;20197;-78
2024/01/09 06:51:57;;;;;;;25.73;15.03;;;;;;;;;;5088777;28;20237;-77
2024/01/09 06:54:25;;;;;;;27.17;15.53;;;;;;;;;;5083073;28;20209;-76
2024/01/09 06:56:52;;;;;;;27.50;15.47;;;;;;;;;;5088621;28;20203;-78
2024/01/09 06:59:19;;;;;;;27.77;16.20;;;;;;;;;;5088943;28;20225;-78
2024/01/09 07:01:46;;;;;;;28.80;15.57;;;;;;;;;;5090852;28;20225;-79
2024/01/09 07:04:14;;;;;;;27.30;15.83;;;;;;;;;;5085846;28;20254;-74
2024/01/09 07:06:42;;;;;;;28.17;14.67;;;;;;;;;;5087418;28;20194;-75
2024/01/09 07:09:10;;;;;;;28.77;15.80;;;;;;;;;;5093977;28;20560;-76
2024/01/09 07:11:37;;;;;;;30.10;17.47;;;;;;;;;;5086716;28;20237;-78
2024/01/09 07:14:04;;;;;;;31.57;16.80;;;;;;;;;;5071585;28;20210;-78
2024/01/09 07:16:31;;;;;;;30.57;16.33;;;;;;;;;;5088877;22;20773;-63
2024/01/09 07:18:59;;;;;;;35.17;17.23;;;;;;;;;;5067690;28;20227;-64
2024/01/09 07:21:28;;;;;;;31.43;17.40;;;;;;;;;;5070765;28;20681;-62
2024/01/09 07:23:59;;;;;;;34.13;18.33;;;;;;;;;;5059785;28;20656;-63
2024/01/09 07:26:27;;;;;;;32.50;15.93;;;;;;;;;;5062169;28;20205;-63
2024/01/09 07:28:56;;;;;;;28.90;16.83;;;;;;;;;;5066058;28;20631;-63
2024/01/09 07:31:24;;;;;;;31.17;16.70;;;;;;;;;;5056747;28;20218;-64
2024/01/09 07:33:52;;;;;;;30.80;16.67;;;;;;;;;;5056960;28;20686;-63
2024/01/09 07:36:21;;;;;;;32.60;17.33;;;;;;;;;;5058951;28;20293;-63
2024/01/09 07:38:49;;;;;;;30.93;16.57;;;;;;;;;;5065725;28;20230;-64
2024/01/09 07:41:17;;;;;;;32.03;16.63;;;;;;;;;;5063777;28;20225;-63
2024/01/09 07:43:45;;;;;;;35.67;17.50;;;;;;;;;;5062216;28;20574;-63
2024/01/09 07:46:13;;;;;;;33.70;18.40;;;;;;;;;;5081715;28;20207;-63
2024/01/09 07:48:42;;;;;;;32.33;18.33;;;;;;;;;;5088109;28;20202;-64
2024/01/09 07:51:09;;;;;;;32.60;17.03;;;;;;;;;;5081814;28;20407;-63
2024/01/09 07:53:39;;;;;;;35.60;18.07;;;;;;;;;;5084071;28;20198;-64
2024/01/09 07:56:17;;;;;;;34.67;18.43;;;;;;;;;;5085665;28;20248;-64
2024/01/09 07:58:45;;;;;;;31.97;17.80;;;;;;;;;;5082122;28;20206;-64
2024/01/09 08:01:13;;;;;;;34.00;17.27;;;;;;;;;;5085319;28;20232;-64
2024/01/09 08:03:40;;;;;;;30.33;16.77;;;;;;;;;;5069234;28;20210;-63
2024/01/09 08:06:15;;;;;;;32.93;17.43;;;;;;;;;;5083896;28;20211;-64
2024/01/09 08:08:43;;;;;;;33.43;17.80;;;;;;;;;;5079750;28;20674;-63
2024/01/09 08:11:16;;;;;;;41.43;20.13;;;;;;;;;;5080679;28;20712;-64
2024/01/09 08:13:43;;;;;;;28.80;17.07;;;;;;;;;;5071521;28;20197;-63
2024/01/09 08:16:11;;;;;;;31.63;17.73;;;;;;;;;;5080198;28;20566;-63
2024/01/09 08:18:38;;;;;;;32.47;17.17;;;;;;;;;;5085003;28;20205;-62
2024/01/09 08:21:06;;;;;;;28.90;16.30;;;;;;;;;;5065077;28;20253;-63
2024/01/09 08:23:35;;;;;;;34.20;17.60;;;;;;;;;;5083410;28;20251;-63
2024/01/09 08:26:03;;;;;;;32.57;16.50;;;;;;;;;;5071437;28;20656;-64
2024/01/09 08:28:30;;;;;;;33.87;17.13;;;;;;;;;;5080503;28;20554;-63
2024/01/09 08:30:57;;;;;;;28.83;16.27;;;;;;;;;;5067887;28;20226;-63
2024/01/09 08:33:25;;;;;;;29.67;16.83;;;;;;;;;;5068386;28;20212;-64
2024/01/09 08:35:58;;;;;;;32.20;17.10;;;;;;;;;;5087217;28;20243;-63
2024/01/09 08:38:25;;;;;;;30.00;16.83;;;;;;;;;;5070336;28;20226;-63
2024/01/09 08:40:56;;;;;;;28.10;16.47;;;;;;;;;;5081271;28;20226;-63
2024/01/09 08:43:24;;;;;;;30.57;15.83;;;;;;;;;;5071791;28;20684;-63
2024/01/09 08:45:51;;;;;;;32.03;17.57;;;;;;;;;;5082543;28;20197;-64
2024/01/09 08:48:22;;;;;;;29.23;16.43;;;;;;;;;;5071001;28;20556;-63
2024/01/09 08:50:50;;;;;;;28.47;15.83;;;;;;;;;;5084754;28;20614;-62
2024/01/09 08:53:17;;;;;;;29.57;16.43;;;;;;;;;;5080102;28;20212;-63
2024/01/09 08:55:44;;;;;;;29.67;16.17;;;;;;;;;;5080499;28;20719;-63
2024/01/09 08:58:12;;;;;;;30.87;16.53;;;;;;;;;;5086432;28;20255;-63
2024/01/09 09:00:39;;;;;;;30.83;16.60;;;;;;;;;;5082304;28;20607;-63
2024/01/09 09:03:06;;;;;;;33.30;17.17;;;;;;;;;;5068633;28;20295;-63
2024/01/09 09:05:34;;;;;;;29.77;17.40;;;;;;;;;;5073169;28;20201;-63
2024/01/09 09:08:04;;;;;;;30.53;16.50;;;;;;;;;;5085420;28;20206;-63
2024/01/09 09:10:31;;;;;;;27.87;15.77;;;;;;;;;;5084877;28;20643;-63
2024/01/09 09:12:59;;;;;;;28.43;16.00;;;;;;;;;;5064567;28;20575;-63
2024/01/09 09:15:26;;;;;;;30.27;15.73;;;;;;;;;;5068835;28;20252;-62
2024/01/09 09:17:54;;;;;;;28.70;15.70;;;;;;;;;;5086601;28;20216;-63
2024/01/09 09:20:23;;;;;;;29.37;16.13;;;;;;;;;;5083991;28;20697;-63
2024/01/09 09:22:51;;;;;;;28.13;16.80;;;;;;;;;;5083854;28;20207;-64
2024/01/09 09:25:19;;;;;;;30.57;16.80;;;;;;;;;;5068362;28;20204;-63
2024/01/09 09:27:46;;;;;;;31.97;17.03;;;;;;;;;;5067696;28;20888;-63
2024/01/09 09:30:14;;;;;;;29.10;16.67;;;;;;;;;;5066941;28;20228;-62
2024/01/09 09:32:41;;;;;;;26.50;15.33;;;;;;;;;;5090285;28;20216;-62
2024/01/09 09:35:09;;;;;;;27.70;16.00;;;;;;;;;;5089833;28;20654;-64
2024/01/09 09:37:36;;;;;;;29.20;14.83;;;;;;;;;;5090330;28;20297;-63
2024/01/09 09:40:04;;;;;;;27.90;15.33;;;;;;;;;;5083714;28;21276;-64
2024/01/09 09:42:33;;;;;;;27.60;15.23;;;;;;;;;;5082469;28;20202;-62
2024/01/09 09:45:02;;;;;;;28.63;15.40;;;;;;;;;;5067683;28;20210;-63
2024/01/09 09:47:30;;;;;;;26.73;14.97;;;;;;;;;;5086459;28;20648;-63
2024/01/09 09:49:58;;;;;;;27.67;15.77;;;;;;;;;;5064262;28;20293;-62
2024/01/09 09:52:27;;;;;;;28.90;15.50;;;;;;;;;;5069327;28;20254;-62
2024/01/09 09:54:54;;;;;;;27.23;15.10;;;;;;;;;;5074590;28;20221;-64
2024/01/09 09:57:22;;;;;;;30.50;16.93;;;;;;;;;;5076527;28;20674;-64
2024/01/09 09:59:49;;;;;;;26.23;16.00;;;;;;;;;;5075174;28;20317;-64
2024/01/09 10:02:24;;;;;;;27.67;16.17;;;;;;;;;;5078482;28;20672;-64
2024/01/09 10:04:53;;;;;;;26.03;14.90;;;;;;;;;;5083036;28;20581;-63
2024/01/09 10:07:21;;;;;;;31.40;16.70;;;;;;;;;;5081983;28;20208;-63
2024/01/09 10:09:53;;;;;;;25.70;14.13;;;;;;;;;;5086006;28;20247;-62
2024/01/09 10:12:24;;;;;;;25.30;15.57;;;;;;;;;;5089442;28;20249;-62
2024/01/09 10:15:01;;;;;;;26.10;14.83;;;;;;;;;;5082877;28;20221;-61
2024/01/09 10:17:29;;;;;;;27.80;15.27;;;;;;;;;;5088213;28;20682;-62
2024/01/09 10:19:56;;;;;;;25.43;15.23;;;;;;;;;;5079158;28;20231;-62
2024/01/09 10:22:27;;;;;;;24.87;14.93;;;;;;;;;;5084097;28;20208;-63
2024/01/09 10:24:57;;;;;;;21.40;14.07;;;;;;;;;;5084762;28;20199;-64
2024/01/09 10:27:25;;;;;;;29.43;15.60;;;;;;;;;;5076397;28;20202;-61
2024/01/09 10:29:52;;;;;;;26.87;14.83;;;;;;;;;;5090110;28;20221;-62
2024/01/09 10:32:20;;;;;;;26.80;15.33;;;;;;;;;;5090786;28;20235;-64
2024/01/09 10:34:47;;;;;;;28.27;15.77;;;;;;;;;;5086769;28;20207;-64
2024/01/09 10:37:15;;;;;;;29.17;16.63;;;;;;;;;;5076422;28;20638;-64
2024/01/09 10:39:47;;;;;;;32.13;17.17;;;;;;;;;;5086663;28;20666;-64
2024/01/09 10:42:15;;;;;;;27.70;16.10;;;;;;;;;;5088263;28;20211;-63
2024/01/09 10:44:47;;;;;;;29.93;16.70;;;;;;;;;;5086321;28;20611;-61
2024/01/09 10:47:17;;;;;;;30.37;16.87;;;;;;;;;;5069851;28;20204;-62
2024/01/09 10:49:45;;;;;;;26.27;15.70;;;;;;;;;;5072378;28;20207;-64
2024/01/09 10:52:16;;;;;;;23.13;15.00;;;;;;;;;;5085036;28;20287;-64
2024/01/09 10:54:45;;;;;;;25.07;15.07;;;;;;;;;;5091070;28;20273;-64
2024/01/09 10:57:13;;;;;;;26.03;15.03;;;;;;;;;;5087181;28;20226;-64
2024/01/09 10:59:43;;;;;;;27.20;14.93;;;;;;;;;;5070428;28;20711;-62
2024/01/09 11:02:25;;;;;;;27.47;15.67;;;;;;;;;;5088600;28;20223;-64
2024/01/09 11:04:52;;;;;;;24.67;14.80;;;;;;;;;;5083682;28;20244;-62
2024/01/09 11:07:20;;;;;;;28.87;16.27;;;;;;;;;;5076074;28;20210;-62
2024/01/09 11:09:48;;;;;;;25.17;13.97;;;;;;;;;;5085111;28;20219;-64
2024/01/09 11:12:20;;;;;;;28.53;15.40;;;;;;;;;;5087928;28;20837;-63
2024/01/09 11:14:52;;;;;;;25.90;15.37;;;;;;;;;;5087176;28;20216;-63
2024/01/09 11:17:21;;;;;;;27.83;15.47;;;;;;;;;;5070304;28;20339;-63
2024/01/09 11:19:49;;;;;;;22.60;13.97;;;;;;;;;;5087450;28;20231;-63
2024/01/09 11:22:17;;;;;;;23.33;14.80;;;;;;;;;;5083207;28;20208;-63
2024/01/09 11:24:48;;;;;;;26.43;15.40;;;;;;;;;;5081366;28;20212;-63
2024/01/09 11:27:17;;;;;;;26.50;16.73;;;;;;;;;;5080852;28;20221;-63
2024/01/09 11:29:48;;;;;;;27.77;15.87;;;;;;;;;;5088816;28;20208;-63
2024/01/09 11:32:16;;;;;;;25.60;14.57;;;;;;;;;;5086873;28;20212;-63
2024/01/09 11:34:47;;;;;;;28.43;16.33;;;;;;;;;;5084814;28;20295;-63
2024/01/09 11:37:21;;;;;;;29.37;16.83;;;;;;;;;;5082960;28;20287;-63
2024/01/09 11:39:48;;;;;;;27.77;15.77;;;;;;;;;;5085483;28;20243;-64
2024/01/09 11:42:16;;;;;;;29.07;16.23;;;;;;;;;;5081060;28;20200;-63
2024/01/09 11:44:43;;;;;;;27.57;15.73;;;;;;;;;;5085471;28;20198;-63
2024/01/09 11:47:10;;;;;;;25.77;15.63;;;;;;;;;;5082192;28;20201;-63
2024/01/09 11:49:38;;;;;;;24.80;15.03;;;;;;;;;;5081878;28;20748;-64
2024/01/09 11:52:05;;;;;;;28.07;16.23;;;;;;;;;;5089193;28;20697;-64
2024/01/09 11:54:33;;;;;;;26.13;15.10;;;;;;;;;;5073782;28;20193;-63
2024/01/09 11:57:04;;;;;;;25.30;15.90;;;;;;;;;;5068052;28;20204;-63
2024/01/09 11:59:33;;;;;;;28.13;16.50;;;;;;;;;;5084161;28;20309;-63
2024/01/09 12:02:00;;;;;;;29.50;17.50;;;;;;;;;;5086064;28;20298;-64
2024/01/09 12:04:30;;;;;;;29.23;16.77;;;;;;;;;;5084755;28;20212;-63
2024/01/09 12:06:57;;;;;;;23.80;14.70;;;;;;;;;;5087558;28;20197;-63
2024/01/09 12:09:28;;;;;;;21.53;14.00;;;;;;;;;;5089869;28;20208;-63
2024/01/09 12:11:56;;;;;;;21.07;14.67;;;;;;;;;;5089347;28;20231;-63
2024/01/09 12:14:23;;;;;;;23.83;14.73;;;;;;;;;;5083008;28;20201;-64
2024/01/09 12:16:51;;;;;;;22.17;14.90;;;;;;;;;;5083972;28;20223;-64
2024/01/09 12:19:19;;;;;;;24.47;15.43;;;;;;;;;;5088194;28;20225;-63
2024/01/09 12:21:47;;;;;;;23.83;14.97;;;;;;;;;;5071681;28;20271;-64
2024/01/09 12:24:15;;;;;;;21.77;14.20;;;;;;;;;;5072462;28;20202;-63
2024/01/09 12:26:51;;;;;;;27.03;15.40;;;;;;;;;;5085224;28;20203;-63
2024/01/09 12:29:21;;;;;;;25.13;14.53;;;;;;;;;;5063641;28;20290;-64
2024/01/09 12:31:55;;;;;;;23.20;13.87;;;;;;;;;;5082810;28;20892;-64
2024/01/09 12:34:22;;;;;;;23.90;14.73;;;;;;;;;;5064375;28;20203;-63
2024/01/09 12:36:50;;;;;;;23.63;14.13;;;;;;;;;;5086692;28;20207;-64
2024/01/09 12:39:19;;;;;;;23.50;13.57;;;;;;;;;;5087000;28;20250;-63
2024/01/09 12:41:47;;;;;;;18.60;13.17;;;;;;;;;;5067501;28;20350;-63
2024/01/09 12:44:15;;;;;;;21.97;13.93;;;;;;;;;;5086412;28;20201;-63
2024/01/09 12:46:47;;;;;;;24.60;14.67;;;;;;;;;;5085184;28;20672;-63
2024/01/09 12:49:14;;;;;;;19.60;13.43;;;;;;;;;;5082498;28;20207;-63
2024/01/09 12:51:42;;;;;;;20.10;12.70;;;;;;;;;;5085941;28;20701;-63
2024/01/09 12:54:17;;;;;;;21.43;13.73;;;;;;;;;;5086852;28;20204;-64
2024/01/09 12:56:45;;;;;;;22.13;14.40;;;;;;;;;;5087086;28;20206;-63
2024/01/09 12:59:17;;;;;;;20.67;13.50;;;;;;;;;;5082412;28;20236;-62
2024/01/09 13:01:44;;;;;;;20.60;13.60;;;;;;;;;;5083904;28;20300;-62
2024/01/09 13:04:12;;;;;;;20.40;13.10;;;;;;;;;;5068954;28;20201;-63
2024/01/09 13:06:41;;;;;;;21.87;13.47;;;;;;;;;;5085652;28;20284;-61
2024/01/09 13:09:11;;;;;;;19.80;13.13;;;;;;;;;;5082053;28;20204;-62
2024/01/09 13:11:40;;;;;;;21.77;13.80;;;;;;;;;;5083288;28;20227;-65
2024/01/09 13:14:08;;;;;;;26.83;14.53;;;;;;;;;;5085933;28;20507;-62
2024/01/09 13:16:37;;;;;;;25.57;14.57;;;;;;;;;;5084563;28;20233;-65
2024/01/09 13:19:06;;;;;;;24.03;14.50;;;;;;;;;;5086894;28;20231;-63
2024/01/09 13:21:35;;;;;;;25.57;15.13;;;;;;;;;;5084360;28;20221;-62
2024/01/09 13:24:25;;;;;;;24.07;13.77;;;;;;;;;;5078789;28;20199;-64
2024/01/09 13:26:54;;;;;;;21.27;13.93;;;;;;;;;;5079295;28;20205;-63
2024/01/09 13:29:25;;;;;;;29.30;18.37;;;;;;;;;;5085059;28;20202;-64
2024/01/09 13:31:55;;;;;;;21.80;14.07;;;;;;;;;;5064490;28;20221;-63
2024/01/09 13:34:25;;;;;;;23.10;14.63;;;;;;;;;;5079821;28;20237;-62
2024/01/09 13:36:55;;;;;;;21.20;13.40;;;;;;;;;;5083243;28;20293;-63
2024/01/09 13:39:24;;;;;;;21.73;14.17;;;;;;;;;;5064837;28;20215;-64
2024/01/09 13:41:52;;;;;;;20.47;12.63;;;;;;;;;;5085459;28;20228;-63
2024/01/09 13:44:21;;;;;;;23.40;14.10;;;;;;;;;;5089996;28;20207;-64
2024/01/09 13:46:51;;;;;;;23.30;14.20;;;;;;;;;;5091298;28;20210;-64
2024/01/09 13:49:19;;;;;;;24.40;13.93;;;;;;;;;;5084212;28;20216;-65
2024/01/09 13:51:47;;;;;;;19.87;13.60;;;;;;;;;;5071143;28;20234;-64
2024/01/09 13:54:22;;;;;;;20.40;13.47;;;;;;;;;;5085863;28;20588;-64
2024/01/09 13:56:50;;;;;;;22.13;13.90;;;;;;;;;;5085872;28;20222;-64
2024/01/09 13:59:17;;;;;;;21.53;13.57;;;;;;;;;;5084926;28;20214;-63
2024/01/09 14:01:44;;;;;;;20.80;13.13;;;;;;;;;;5090338;28;20652;-64
2024/01/09 14:04:15;;;;;;;22.70;13.77;;;;;;;;;;5081707;28;20205;-63
2024/01/09 14:06:45;;;;;;;23.07;14.10;;;;;;;;;;5092880;28;20199;-63
2024/01/09 14:09:13;;;;;;;18.63;12.90;;;;;;;;;;5069691;28;20550;-63
2024/01/09 14:11:40;;;;;;;19.43;12.90;;;;;;;;;;5086027;28;20239;-63
2024/01/09 14:14:08;;;;;;;21.20;13.80;;;;;;;;;;5085677;28;20285;-63
2024/01/09 14:16:35;;;;;;;19.00;12.40;;;;;;;;;;5089213;28;20216;-63
2024/01/09 14:19:03;;;;;;;19.00;12.30;;;;;;;;;;5087675;28;20666;-64
2024/01/09 14:21:33;;;;;;;18.07;13.33;;;;;;;;;;5086507;28;20227;-63
2024/01/09 14:24:01;;;;;;;18.40;11.90;;;;;;;;;;5088503;28;20686;-63